createdAt,value
2022-12-26T00:04:49.027Z,16.19
2022-12-26T00:11:30.670Z,16.08
2022-12-26T00:18:16.082Z,16.09
2022-12-26T00:25:02.072Z,16.03
2022-12-26T00:31:50.697Z,15.47
2022-12-26T00:38:37.419Z,16.09
2022-12-26T00:45:22.590Z,16.25
2022-12-26T00:52:10.675Z,16.07
2022-12-26T00:58:56.185Z,16.03
2022-12-26T01:05:44.744Z,16.04
2022-12-26T01:12:33.099Z,16.10
2022-12-26T01:19:18.571Z,16.08
2022-12-26T01:26:15.754Z,16.10
2022-12-26T01:33:08.435Z,16.09
2022-12-26T01:39:55.408Z,15.49
2022-12-26T01:46:45.583Z,16.12
2022-12-26T01:53:38.835Z,16.09
2022-12-26T02:00:24.521Z,16.10
2022-12-26T02:07:10.357Z,15.62
2022-12-26T02:13:58.732Z,16.11
2022-12-26T02:21:03.371Z,16.20
2022-12-26T02:28:27.005Z,16.32
2022-12-26T02:35:28.356Z,15.96
2022-12-26T02:42:27.687Z,16.20
2022-12-26T02:49:23.180Z,16.19
2022-12-26T02:56:31.330Z,16.22
2022-12-26T03:03:33.985Z,16.21
2022-12-26T03:10:36.574Z,16.22
2022-12-26T03:17:31.346Z,16.28
2022-12-26T03:24:19.534Z,16.51
2022-12-26T03:31:10.680Z,16.44
2022-12-26T03:38:02.268Z,16.57
2022-12-26T04:05:25.193Z,17.09
2022-12-26T04:12:31.312Z,17.20
2022-12-26T04:19:40.603Z,17.16
2022-12-26T04:26:48.090Z,17.21
2022-12-26T04:33:56.947Z,17.15
2022-12-26T04:41:03.958Z,17.05
2022-12-26T04:48:05.426Z,17.31
2022-12-26T04:54:51.754Z,17.06
2022-12-26T05:01:49.947Z,17.01
2022-12-26T05:08:53.821Z,16.97
2022-12-26T05:16:01.983Z,16.86
2022-12-26T05:23:01.665Z,16.74
2022-12-26T05:29:49.710Z,16.52
2022-12-26T05:36:40.670Z,16.63
2022-12-26T05:43:26.168Z,16.73
2022-12-26T05:50:14.505Z,16.49
2022-12-26T05:57:00.209Z,16.61
2022-12-26T06:03:50.338Z,16.59
2022-12-26T06:10:38.837Z,16.71
2022-12-26T06:17:24.225Z,16.92
2022-12-26T06:24:10.501Z,17.05
2022-12-26T06:31:04.118Z,17.02
2022-12-26T06:37:49.640Z,17.04
2022-12-26T06:44:35.087Z,16.78
2022-12-26T06:51:26.695Z,16.54
2022-12-26T06:58:13.101Z,16.54
2022-12-26T07:04:58.505Z,16.56
2022-12-26T07:11:50.447Z,16.44
2022-12-26T07:18:35.815Z,16.40
2022-12-26T07:25:21.244Z,16.33
2022-12-26T07:32:09.931Z,16.22
2022-12-26T07:38:55.494Z,16.36
2022-12-26T07:45:45.658Z,16.56
2022-12-26T07:52:34.047Z,16.70
2022-12-26T07:59:21.477Z,16.85
2022-12-26T08:06:07.007Z,16.95
2022-12-26T08:12:54.917Z,16.96
2022-12-26T08:19:40.715Z,17.11
2022-12-26T08:26:26.081Z,17.11
2022-12-26T08:33:15.027Z,17.07
2022-12-26T08:40:00.483Z,17.15
2022-12-26T08:46:46.829Z,17.41
2022-12-26T08:53:36.963Z,16.70
2022-12-26T09:00:26.745Z,16.34
2022-12-26T09:07:12.576Z,16.80
2022-12-26T09:14:04.011Z,16.69
2022-12-26T09:20:49.411Z,16.75
2022-12-26T09:27:34.780Z,16.97
2022-12-26T09:34:22.742Z,17.03
2022-12-26T09:41:32.168Z,16.93
2022-12-26T09:48:23.719Z,16.99
2022-12-26T09:55:35.228Z,16.76
2022-12-26T10:02:24.981Z,16.65
2022-12-26T10:09:48.135Z,16.50
2022-12-26T10:16:51.632Z,16.42
2022-12-26T10:23:39.748Z,16.26
2022-12-26T10:30:28.793Z,15.98
2022-12-26T10:37:27.366Z,16.08
2022-12-26T10:44:15.279Z,16.07
2022-12-26T10:51:00.772Z,16.10
2022-12-26T10:57:54.370Z,16.00
2022-12-26T11:05:11.677Z,16.29
2022-12-26T11:11:48.605Z,16.46
2022-12-26T11:18:48.798Z,16.06
2022-12-26T11:25:38.964Z,16.41
2022-12-26T11:32:25.079Z,16.49
2022-12-26T11:39:26.847Z,16.50
2022-12-26T11:46:12.350Z,16.60
2022-12-26T11:53:10.253Z,16.69
2022-12-26T12:00:18.833Z,16.84
2022-12-26T12:07:15.917Z,16.92
2022-12-26T12:14:31.716Z,16.95
2022-12-26T12:21:32.169Z,17.14
2022-12-26T12:28:45.117Z,17.25
2022-12-26T12:35:52.196Z,17.34
2022-12-26T12:42:51.861Z,17.45
2022-12-26T12:49:53.794Z,17.44
2022-12-26T12:56:50.957Z,17.52
2022-12-26T13:03:48.385Z,17.59
2022-12-26T13:10:38.186Z,17.75
2022-12-26T13:17:29.915Z,17.76
2022-12-26T13:24:26.712Z,17.69
2022-12-26T13:31:12.852Z,17.75
2022-12-26T13:38:02.127Z,17.70
2022-12-26T13:44:53.620Z,17.71
2022-12-26T13:51:54.995Z,17.77
2022-12-26T13:58:55.290Z,17.72
2022-12-26T14:06:05.491Z,17.62
2022-12-26T14:13:06.952Z,17.89
2022-12-26T14:20:21.523Z,17.92
2022-12-26T14:27:34.788Z,17.87
2022-12-26T14:34:33.534Z,17.69
2022-12-26T14:41:35.194Z,17.68
2022-12-26T14:48:54.850Z,17.70
2022-12-26T14:55:53.086Z,17.64
2022-12-26T15:02:39.231Z,17.70
2022-12-26T15:10:05.714Z,17.63
2022-12-26T15:17:14.686Z,17.59
2022-12-26T15:25:21.312Z,17.50
2022-12-26T15:32:12.916Z,17.62
2022-12-26T15:39:06.460Z,17.61
2022-12-26T15:46:00.180Z,17.48
2022-12-26T15:53:05.375Z,17.47
2022-12-26T16:00:10.488Z,17.55
2022-12-26T16:07:26.324Z,17.47
2022-12-26T16:14:29.603Z,17.71
2022-12-26T16:21:36.601Z,17.69
2022-12-26T16:28:26.782Z,17.81
2022-12-26T16:35:25.766Z,17.29
2022-12-26T16:42:33.358Z,16.94
2022-12-26T16:49:18.807Z,16.16
2022-12-26T16:56:26.586Z,15.40
2022-12-26T17:03:27.147Z,14.84
2022-12-26T17:10:25.802Z,14.66
2022-12-26T17:17:36.407Z,14.46
2022-12-26T17:24:30.144Z,14.14
2022-12-26T17:31:21.824Z,14.08
2022-12-26T17:38:20.676Z,14.25
2022-12-26T17:45:06.563Z,14.49
2022-12-26T17:51:58.374Z,14.62
2022-12-26T17:58:50.172Z,14.69
2022-12-26T18:05:37.526Z,14.71
2022-12-26T18:12:23.201Z,14.81
2022-12-26T18:19:17.144Z,14.86
2022-12-26T18:26:05.581Z,14.92
2022-12-26T18:32:53.384Z,14.91
2022-12-26T18:39:41.432Z,15.09
2022-12-26T18:46:29.875Z,15.17
2022-12-26T18:53:15.884Z,15.01
2022-12-26T19:00:04.001Z,15.22
2022-12-26T19:06:49.435Z,15.18
2022-12-26T19:13:36.226Z,15.01
2022-12-26T19:20:26.560Z,15.12
2022-12-26T19:27:11.936Z,14.77
2022-12-26T19:34:01.550Z,14.70
2022-12-26T19:40:49.537Z,14.78
2022-12-26T19:47:35.069Z,14.78
2022-12-26T19:54:20.630Z,14.71
2022-12-26T20:01:15.558Z,14.56
2022-12-26T20:08:01.096Z,14.29
2022-12-26T20:14:46.868Z,13.95
2022-12-26T20:21:35.021Z,13.73
2022-12-26T20:28:20.376Z,13.50
2022-12-26T20:35:06.057Z,13.32
2022-12-26T20:41:54.202Z,13.26
2022-12-26T20:48:39.916Z,13.10
2022-12-26T20:55:25.243Z,13.04
2022-12-26T21:02:14.218Z,12.69
2022-12-26T21:09:01.168Z,12.91
2022-12-26T21:15:46.469Z,13.30
2022-12-26T21:22:34.501Z,13.26
2022-12-26T21:29:22.128Z,13.26
2022-12-26T21:36:13.509Z,13.11
2022-12-26T21:43:02.974Z,13.07
2022-12-26T21:49:48.487Z,13.12
2022-12-26T21:56:33.902Z,12.98
2022-12-26T22:03:34.441Z,12.91
2022-12-26T22:10:32.524Z,12.69
2022-12-26T22:17:18.107Z,12.58
2022-12-26T22:24:06.681Z,12.47
2022-12-26T22:30:53.145Z,12.50
2022-12-26T22:37:38.755Z,12.40
2022-12-26T22:44:27.249Z,12.49
2022-12-26T22:51:19.165Z,12.23
2022-12-26T22:58:04.539Z,12.74
2022-12-26T23:04:53.431Z,12.72
2022-12-26T23:11:39.722Z,12.54
2022-12-26T23:18:48.257Z,12.41
2022-12-26T23:25:37.932Z,12.37
2022-12-26T23:32:23.389Z,12.33
2022-12-26T23:39:08.846Z,12.34
2022-12-26T23:45:56.813Z,12.44
2022-12-26T23:52:43.089Z,11.89
2022-12-26T23:59:28.862Z,12.62
